SAEZ/EZE METAR and TAF weather

Enter ICAO airport designator
Station Type Date Time Source
SAEZ METAR 2020/09/20 14:00 UTC NOAA

SAEZ 201400Z 29016KT CAVOK 16/M01 Q1023 NOSIG


Station Type Date Time Source
SAEZ Decoded METAR 2020/09/20 14:00 UTC NOAA

Ezeiza Aerodrome, Argentina (SAEZ) 34-49S 058-32W 20M
Sep 20, 2020 - 10:00 AM EDT / 2020.09.20 1400 UTC
Wind: from the WNW (290 degrees) at 18 MPH (16 KT):0
Visibility: greater than 7 mile(s):0
Temperature: 60 F (16 C)
Dew Point: 30 F (-1 C)
Relative Humidity: 31%
Pressure (altimeter): 30.21 in. Hg (1023 hPa)
ob: SAEZ 201400Z 29016KT CAVOK 16/M01 Q1023 NOSIG
cycle: 14

Station Type Date Time Source
SAEZ TAF 2020/09/20 12:21 UTC NOAA

TAF TAF SAEZ 201100Z 2012/2112 29010KT CAVOK TX18/2019Z TN03/2110Z
TEMPO 2013/2018 27010G20KT
BECMG 2020/2022 18010KT
BECMG 2106/2108 11005KT

Example: see airport list